Time;durP1;ratioP1;P1;durP2;ratioP2;P2;SDS_P1;SDS_P2;PMS_P1;PMS_P2;Temp;Humidity;BMP_temperature;BMP_pressure;BME280_temperature;BME280_humidity;BME280_pressure;Samples;Min_cycle;Max_cycle;Signal;HPM_P1;HPM_P2
2022/02/16 00:01:23;;;;;;;3.95;2.35;;;;;;;;;;4992325;28;20027;-72
2022/02/16 00:03:49;;;;;;;3.28;2.55;;;;;;;;;;4987575;28;20026;-72
2022/02/16 00:06:15;;;;;;;4.78;2.22;;;;;;;;;;4995835;28;20030;-71
2022/02/16 00:08:41;;;;;;;1.95;1.83;;;;;;;;;;4987785;28;20050;-71
2022/02/16 00:11:07;;;;;;;3.92;1.67;;;;;;;;;;5005844;28;20023;-71
2022/02/16 00:13:33;;;;;;;2.70;2.05;;;;;;;;;;4985961;28;20050;-72
2022/02/16 00:16:00;;;;;;;1.75;1.65;;;;;;;;;;4988759;28;20042;-72
2022/02/16 00:18:26;;;;;;;3.42;1.77;;;;;;;;;;4986483;28;20027;-71
2022/02/16 00:20:52;;;;;;;2.42;1.98;;;;;;;;;;4982263;28;20035;-72
2022/02/16 00:23:18;;;;;;;3.78;1.73;;;;;;;;;;4980999;28;20105;-73
2022/02/16 00:25:44;;;;;;;3.38;1.63;;;;;;;;;;4990908;28;20038;-72
2022/02/16 00:28:10;;;;;;;1.60;1.50;;;;;;;;;;4985086;28;20098;-71
2022/02/16 00:30:36;;;;;;;2.90;1.40;;;;;;;;;;4985368;28;20133;-71
2022/02/16 00:33:02;;;;;;;2.28;1.40;;;;;;;;;;4990638;28;20604;-72
2022/02/16 00:35:29;;;;;;;2.90;1.60;;;;;;;;;;5006288;28;20054;-71
2022/02/16 00:37:55;;;;;;;1.50;1.40;;;;;;;;;;4992004;28;20072;-72
2022/02/16 00:40:21;;;;;;;2.85;1.95;;;;;;;;;;4987747;28;20055;-73
2022/02/16 00:42:47;;;;;;;2.33;1.58;;;;;;;;;;4997769;28;20031;-72
2022/02/16 00:45:13;;;;;;;1.95;1.55;;;;;;;;;;4999038;28;20037;-71
2022/02/16 00:47:39;;;;;;;2.13;1.50;;;;;;;;;;4990599;28;20037;-72
2022/02/16 00:50:05;;;;;;;2.85;1.80;;;;;;;;;;4994412;28;20061;-72
2022/02/16 00:52:31;;;;;;;3.65;1.83;;;;;;;;;;4983369;28;20030;-71
2022/02/16 00:54:57;;;;;;;2.88;1.80;;;;;;;;;;4987099;28;20030;-71
2022/02/16 00:57:24;;;;;;;3.22;2.00;;;;;;;;;;4994319;28;20026;-71
2022/02/16 00:59:50;;;;;;;3.67;1.60;;;;;;;;;;5005986;28;20026;-73
2022/02/16 01:02:16;;;;;;;2.95;1.35;;;;;;;;;;4994098;28;20026;-72
2022/02/16 01:04:42;;;;;;;4.55;1.60;;;;;;;;;;4993461;28;20030;-72
2022/02/16 01:07:08;;;;;;;1.73;1.40;;;;;;;;;;4985550;28;20026;-72
2022/02/16 01:09:35;;;;;;;1.58;1.20;;;;;;;;;;4992110;28;20125;-72
2022/02/16 01:12:01;;;;;;;1.63;1.35;;;;;;;;;;4991774;28;20029;-71
2022/02/16 01:14:27;;;;;;;2.95;1.30;;;;;;;;;;4989712;28;20077;-72
2022/02/16 01:16:53;;;;;;;2.92;1.80;;;;;;;;;;4988832;28;20250;-72
2022/02/16 01:19:19;;;;;;;3.20;1.85;;;;;;;;;;4984984;28;20034;-71
2022/02/16 01:21:45;;;;;;;6.70;1.85;;;;;;;;;;4982729;28;20637;-71
2022/02/16 01:24:11;;;;;;;1.98;1.35;;;;;;;;;;4985597;28;20038;-71
2022/02/16 01:26:37;;;;;;;3.15;2.20;;;;;;;;;;4989331;28;20100;-71
2022/02/16 01:29:03;;;;;;;2.30;1.83;;;;;;;;;;4986649;28;20037;-72
2022/02/16 01:31:29;;;;;;;4.32;1.60;;;;;;;;;;4989685;28;20027;-71
2022/02/16 01:33:56;;;;;;;4.18;1.92;;;;;;;;;;4989460;28;20480;-71
2022/02/16 01:36:22;;;;;;;2.88;1.70;;;;;;;;;;5001113;28;20037;-71
2022/02/16 01:38:48;;;;;;;4.30;1.80;;;;;;;;;;4991215;28;20041;-72
2022/02/16 01:41:15;;;;;;;5.10;1.92;;;;;;;;;;4989973;28;20045;-72
2022/02/16 01:43:48;;;;;;;4.65;2.22;;;;;;;;;;4989962;28;20079;-71
2022/02/16 01:46:14;;;;;;;4.32;1.70;;;;;;;;;;4989847;28;20482;-70
2022/02/16 01:48:41;;;;;;;4.93;2.78;;;;;;;;;;4991208;28;20109;-71
2022/02/16 01:51:07;;;;;;;4.45;2.03;;;;;;;;;;4996285;28;20508;-72
2022/02/16 01:53:34;;;;;;;4.30;1.92;;;;;;;;;;4992353;28;20142;-72
2022/02/16 01:56:00;;;;;;;4.65;2.40;;;;;;;;;;4990358;28;20034;-72
2022/02/16 01:58:28;;;;;;;5.47;2.33;;;;;;;;;;4992189;28;20106;-71
2022/02/16 02:00:55;;;;;;;7.93;2.10;;;;;;;;;;4987241;28;20027;-72
2022/02/16 02:03:21;;;;;;;7.22;2.72;;;;;;;;;;4999628;28;20049;-72
2022/02/16 02:05:50;;;;;;;5.45;2.17;;;;;;;;;;4993457;28;20026;-71
2022/02/16 02:08:21;;;;;;;10.95;2.83;;;;;;;;;;4984115;28;20076;-71
2022/02/16 02:10:50;;;;;;;6.18;3.20;;;;;;;;;;4995655;28;20062;-72
2022/02/16 02:13:17;;;;;;;9.73;2.50;;;;;;;;;;4995171;28;20040;-71
2022/02/16 02:15:43;;;;;;;7.50;2.53;;;;;;;;;;4992041;28;20106;-71
2022/02/16 02:18:13;;;;;;;9.38;3.30;;;;;;;;;;4990410;28;20029;-71
2022/02/16 02:20:40;;;;;;;14.52;4.40;;;;;;;;;;4992039;28;20029;-71
2022/02/16 02:23:07;;;;;;;7.60;2.67;;;;;;;;;;4994937;28;20086;-72
2022/02/16 02:25:49;;;;;;;12.82;4.38;;;;;;;;;;4988089;28;20035;-72
2022/02/16 02:28:20;;;;;;;9.73;2.85;;;;;;;;;;4990647;28;20026;-72
2022/02/16 02:30:47;;;;;;;9.52;3.15;;;;;;;;;;4985248;28;20477;-72
2022/02/16 02:33:13;;;;;;;12.68;4.25;;;;;;;;;;4996275;28;20503;-72
2022/02/16 02:35:39;;;;;;;20.45;4.28;;;;;;;;;;4995929;28;20484;-72
2022/02/16 02:38:06;;;;;;;11.32;4.03;;;;;;;;;;4994620;28;20018;-72
2022/02/16 02:40:32;;;;;;;15.35;4.35;;;;;;;;;;4992965;28;20043;-71
2022/02/16 02:42:59;;;;;;;13.10;4.10;;;;;;;;;;4985427;28;20037;-72
2022/02/16 02:45:25;;;;;;;17.23;4.25;;;;;;;;;;4992237;28;20100;-73
2022/02/16 02:47:51;;;;;;;15.55;5.10;;;;;;;;;;4990111;28;20408;-72
2022/02/16 02:50:18;;;;;;;14.38;4.50;;;;;;;;;;4992101;28;20567;-72
2022/02/16 02:52:44;;;;;;;17.77;4.15;;;;;;;;;;4997254;28;20105;-72
2022/02/16 02:55:11;;;;;;;16.45;5.20;;;;;;;;;;4997882;28;20030;-71
2022/02/16 02:57:38;;;;;;;12.65;3.70;;;;;;;;;;4990250;28;20092;-71
2022/02/16 03:00:05;;;;;;;16.60;5.50;;;;;;;;;;4987712;28;20516;-72
2022/02/16 03:02:31;;;;;;;17.50;4.53;;;;;;;;;;4984885;28;20038;-71
2022/02/16 03:04:57;;;;;;;19.63;5.38;;;;;;;;;;4984602;28;20486;-71
2022/02/16 03:07:23;;;;;;;20.85;5.80;;;;;;;;;;4987619;28;20047;-72
2022/02/16 03:09:50;;;;;;;14.82;5.05;;;;;;;;;;4989316;28;20539;-70
2022/02/16 03:12:17;;;;;;;18.25;4.70;;;;;;;;;;4986942;28;20031;-72
2022/02/16 03:14:43;;;;;;;19.95;5.00;;;;;;;;;;4989989;28;20515;-72
2022/02/16 03:17:09;;;;;;;14.65;5.10;;;;;;;;;;4982825;28;20035;-72
2022/02/16 03:19:36;;;;;;;19.02;6.15;;;;;;;;;;4992967;28;20039;-73
2022/02/16 03:22:03;;;;;;;18.75;5.15;;;;;;;;;;4987748;28;20030;-72
2022/02/16 03:24:29;;;;;;;26.63;7.45;;;;;;;;;;4992030;28;20034;-72
2022/02/16 03:26:55;;;;;;;23.05;5.35;;;;;;;;;;4995138;28;20045;-73
2022/02/16 03:29:21;;;;;;;18.20;6.97;;;;;;;;;;4996283;28;20124;-71
2022/02/16 03:31:48;;;;;;;20.20;6.55;;;;;;;;;;4982530;28;20430;-72
2022/02/16 03:34:14;;;;;;;25.42;5.53;;;;;;;;;;4993046;28;20065;-72
2022/02/16 03:36:40;;;;;;;18.92;6.45;;;;;;;;;;4991098;28;20738;-73
2022/02/16 03:39:06;;;;;;;25.63;5.97;;;;;;;;;;4985584;28;20038;-72
2022/02/16 03:41:32;;;;;;;26.38;7.43;;;;;;;;;;4985489;28;20606;-71
2022/02/16 03:43:59;;;;;;;18.55;6.15;;;;;;;;;;4984230;28;20037;-72
2022/02/16 03:46:26;;;;;;;25.45;6.20;;;;;;;;;;4978172;28;20113;-71
2022/02/16 03:48:52;;;;;;;35.28;6.47;;;;;;;;;;4990345;28;20029;-73
2022/02/16 03:51:18;;;;;;;30.80;5.85;;;;;;;;;;4996230;28;20095;-72
2022/02/16 03:53:44;;;;;;;30.63;6.13;;;;;;;;;;4982246;28;20088;-72
2022/02/16 03:56:10;;;;;;;23.42;6.80;;;;;;;;;;4993631;28;20053;-72
2022/02/16 03:58:37;;;;;;;26.45;8.63;;;;;;;;;;4987690;28;20022;-72
2022/02/16 04:01:03;;;;;;;22.02;5.90;;;;;;;;;;4980269;28;20030;-72
2022/02/16 04:03:29;;;;;;;26.98;6.90;;;;;;;;;;4987775;28;20042;-72
2022/02/16 04:05:55;;;;;;;34.65;7.38;;;;;;;;;;4986069;28;20026;-72
2022/02/16 04:08:21;;;;;;;30.88;7.40;;;;;;;;;;4988701;28;20203;-72
2022/02/16 04:10:47;;;;;;;21.38;6.72;;;;;;;;;;4988714;28;20042;-72
2022/02/16 04:13:14;;;;;;;27.00;6.95;;;;;;;;;;4993250;28;20117;-72
2022/02/16 04:15:40;;;;;;;27.63;7.28;;;;;;;;;;4998155;28;20145;-72
2022/02/16 04:18:06;;;;;;;34.28;9.38;;;;;;;;;;4993162;28;20037;-72
2022/02/16 04:20:32;;;;;;;29.00;6.47;;;;;;;;;;4982623;28;20061;-71
2022/02/16 04:22:58;;;;;;;29.17;7.90;;;;;;;;;;4990808;28;20030;-72
2022/02/16 04:25:24;;;;;;;30.58;7.63;;;;;;;;;;5006837;28;20093;-72
2022/02/16 04:27:51;;;;;;;25.25;6.90;;;;;;;;;;5003018;28;20392;-72
2022/02/16 04:30:20;;;;;;;31.38;6.97;;;;;;;;;;4994572;28;20030;-74
2022/02/16 04:32:46;;;;;;;30.73;7.45;;;;;;;;;;4990220;28;20022;-73
2022/02/16 04:35:12;;;;;;;27.00;6.65;;;;;;;;;;4989671;28;20045;-72
2022/02/16 04:37:38;;;;;;;23.02;6.25;;;;;;;;;;4986776;28;20547;-71
2022/02/16 04:40:05;;;;;;;24.00;7.55;;;;;;;;;;4979313;28;20409;-71
2022/02/16 04:42:31;;;;;;;22.85;6.93;;;;;;;;;;4983110;28;20060;-72
2022/02/16 04:44:57;;;;;;;20.20;6.75;;;;;;;;;;4982441;28;20153;-72
2022/02/16 04:47:23;;;;;;;34.47;7.38;;;;;;;;;;4989389;28;20030;-72
2022/02/16 04:49:49;;;;;;;26.95;6.60;;;;;;;;;;4983994;28;20089;-73
2022/02/16 04:52:16;;;;;;;25.65;6.22;;;;;;;;;;4990298;28;20817;-73
2022/02/16 04:54:42;;;;;;;28.33;8.30;;;;;;;;;;4981927;28;20054;-72
2022/02/16 04:57:08;;;;;;;23.15;7.60;;;;;;;;;;4987669;28;20080;-72
2022/02/16 04:59:34;;;;;;;29.75;8.13;;;;;;;;;;4990900;28;20035;-73
2022/02/16 05:02:00;;;;;;;26.98;6.20;;;;;;;;;;4988346;28;20093;-73
2022/02/16 05:04:26;;;;;;;32.67;7.45;;;;;;;;;;4984501;28;20065;-73
2022/02/16 05:06:52;;;;;;;27.23;6.40;;;;;;;;;;4995496;28;20041;-73
2022/02/16 05:09:18;;;;;;;33.13;6.63;;;;;;;;;;4987043;28;20037;-72
2022/02/16 05:11:44;;;;;;;23.73;6.15;;;;;;;;;;4998633;28;20026;-73
2022/02/16 05:14:10;;;;;;;27.10;6.28;;;;;;;;;;4987445;28;20026;-72
2022/02/16 05:16:36;;;;;;;27.83;7.45;;;;;;;;;;4996801;28;20047;-73
2022/02/16 05:19:03;;;;;;;33.92;7.97;;;;;;;;;;4998913;28;20030;-72
2022/02/16 05:21:29;;;;;;;28.55;7.18;;;;;;;;;;5006286;28;20062;-71
2022/02/16 05:23:55;;;;;;;28.70;7.18;;;;;;;;;;4992288;28;20030;-70
2022/02/16 05:26:21;;;;;;;32.45;8.27;;;;;;;;;;4990306;28;20034;-72
2022/02/16 05:28:47;;;;;;;29.80;8.00;;;;;;;;;;4987489;28;20026;-72
2022/02/16 05:31:13;;;;;;;28.48;8.23;;;;;;;;;;4996565;28;20045;-71
2022/02/16 05:33:39;;;;;;;27.88;7.43;;;;;;;;;;4989903;28;20396;-72
2022/02/16 05:36:05;;;;;;;19.63;8.75;;;;;;;;;;4989225;28;20038;-72
2022/02/16 05:38:35;;;;;;;25.45;6.30;;;;;;;;;;4998349;28;20045;-71
2022/02/16 05:41:01;;;;;;;33.88;7.32;;;;;;;;;;4994096;28;20014;-71
2022/02/16 05:43:27;;;;;;;26.25;6.50;;;;;;;;;;4993511;28;20078;-72
2022/02/16 05:45:53;;;;;;;30.75;6.97;;;;;;;;;;4988088;28;20033;-71
2022/02/16 05:48:22;;;;;;;26.58;6.57;;;;;;;;;;4990292;28;20545;-72
2022/02/16 05:50:49;;;;;;;34.58;8.00;;;;;;;;;;4989876;28;20033;-72
2022/02/16 05:53:15;;;;;;;27.25;7.38;;;;;;;;;;4995694;28;20094;-72
2022/02/16 05:55:41;;;;;;;36.17;9.38;;;;;;;;;;4997119;28;20022;-70
2022/02/16 05:58:07;;;;;;;34.40;8.18;;;;;;;;;;4989530;28;20445;-72
2022/02/16 06:00:33;;;;;;;33.47;8.73;;;;;;;;;;4989552;28;20102;-71
2022/02/16 06:03:00;;;;;;;43.75;9.18;;;;;;;;;;4991755;28;20119;-73
2022/02/16 06:05:26;;;;;;;29.38;6.78;;;;;;;;;;4991145;28;20033;-71
2022/02/16 06:07:52;;;;;;;40.53;8.07;;;;;;;;;;4989901;28;20034;-71
2022/02/16 06:10:18;;;;;;;33.83;7.95;;;;;;;;;;4988741;28;20042;-71
2022/02/16 06:12:44;;;;;;;27.73;8.52;;;;;;;;;;4985333;28;20026;-70
2022/02/16 06:15:11;;;;;;;33.78;9.48;;;;;;;;;;4988403;28;20038;-72
2022/02/16 06:17:37;;;;;;;39.25;8.68;;;;;;;;;;4988313;28;20110;-71
2022/02/16 06:20:04;;;;;;;34.75;8.65;;;;;;;;;;4987997;28;20030;-72
2022/02/16 06:22:30;;;;;;;34.08;8.60;;;;;;;;;;4985346;28;20448;-71
2022/02/16 06:24:56;;;;;;;33.60;8.48;;;;;;;;;;4989602;28;20065;-72
2022/02/16 06:27:22;;;;;;;23.33;6.93;;;;;;;;;;4982328;28;20089;-72
2022/02/16 06:29:48;;;;;;;28.80;8.40;;;;;;;;;;4982946;28;20031;-72
2022/02/16 06:32:14;;;;;;;32.22;7.90;;;;;;;;;;5003365;28;20037;-73
2022/02/16 06:34:40;;;;;;;31.52;10.13;;;;;;;;;;4990535;28;20027;-71
2022/02/16 06:37:06;;;;;;;34.15;7.85;;;;;;;;;;5008017;28;20027;-73
2022/02/16 06:39:32;;;;;;;27.23;8.75;;;;;;;;;;4984666;28;20035;-71
2022/02/16 06:41:58;;;;;;;32.45;9.10;;;;;;;;;;4984335;28;20181;-71
2022/02/16 06:44:25;;;;;;;36.55;9.45;;;;;;;;;;4988257;28;20029;-71
2022/02/16 06:46:51;;;;;;;30.42;8.27;;;;;;;;;;4988671;28;20112;-71
2022/02/16 06:49:17;;;;;;;29.50;8.15;;;;;;;;;;4987656;28;20034;-72
2022/02/16 06:51:43;;;;;;;28.77;8.23;;;;;;;;;;4987675;28;20059;-72
2022/02/16 06:54:09;;;;;;;30.63;8.13;;;;;;;;;;4993774;28;20046;-71
2022/02/16 06:56:35;;;;;;;40.03;9.63;;;;;;;;;;4992482;28;20034;-73
2022/02/16 06:59:01;;;;;;;39.42;9.82;;;;;;;;;;4988308;28;20030;-72
2022/02/16 07:01:28;;;;;;;35.20;8.13;;;;;;;;;;4991894;28;20030;-72
2022/02/16 07:03:54;;;;;;;33.00;9.02;;;;;;;;;;5002798;28;20057;-72
2022/02/16 07:06:20;;;;;;;32.40;10.02;;;;;;;;;;4990152;28;20124;-72
2022/02/16 07:08:47;;;;;;;32.65;7.53;;;;;;;;;;4992642;28;20057;-73
2022/02/16 07:11:13;;;;;;;34.63;8.23;;;;;;;;;;4989025;28;20493;-73
2022/02/16 07:13:39;;;;;;;32.72;6.53;;;;;;;;;;4999485;28;20030;-72
2022/02/16 07:16:05;;;;;;;34.63;8.73;;;;;;;;;;4982528;28;20047;-72
2022/02/16 07:18:33;;;;;;;30.55;8.93;;;;;;;;;;4987228;28;20029;-72
2022/02/16 07:21:00;;;;;;;33.50;9.02;;;;;;;;;;4985792;28;20099;-71
2022/02/16 07:23:26;;;;;;;38.20;8.85;;;;;;;;;;4990841;28;20614;-72
2022/02/16 07:25:52;;;;;;;30.52;8.88;;;;;;;;;;4993506;28;20029;-71
2022/02/16 07:28:18;;;;;;;30.75;8.60;;;;;;;;;;4981075;28;20031;-72
2022/02/16 07:30:48;;;;;;;27.83;7.15;;;;;;;;;;4988986;28;20034;-72
2022/02/16 07:33:14;;;;;;;34.10;8.02;;;;;;;;;;4992526;28;20104;-73
2022/02/16 07:35:40;;;;;;;29.05;7.50;;;;;;;;;;4986579;28;20023;-71
2022/02/16 07:38:06;;;;;;;30.88;7.40;;;;;;;;;;4994231;28;20114;-71
2022/02/16 07:40:33;;;;;;;30.88;8.15;;;;;;;;;;5003676;28;20432;-72
2022/02/16 07:42:59;;;;;;;28.25;7.35;;;;;;;;;;4976183;28;20084;-72
2022/02/16 07:45:25;;;;;;;29.15;6.95;;;;;;;;;;4981387;28;20117;-72
2022/02/16 07:47:51;;;;;;;29.45;7.65;;;;;;;;;;4978851;28;20030;-71
2022/02/16 07:50:18;;;;;;;34.58;8.52;;;;;;;;;;4996255;28;20532;-72
2022/02/16 07:52:45;;;;;;;32.47;8.65;;;;;;;;;;4980322;28;20084;-72
2022/02/16 07:55:12;;;;;;;32.85;8.73;;;;;;;;;;4978086;28;20041;-72
2022/02/16 07:57:39;;;;;;;35.35;9.00;;;;;;;;;;4991102;28;20030;-73
2022/02/16 08:00:06;;;;;;;34.47;8.77;;;;;;;;;;4979154;28;20042;-72
2022/02/16 08:02:32;;;;;;;27.90;7.57;;;;;;;;;;4974968;28;20038;-72
2022/02/16 08:04:58;;;;;;;32.22;8.63;;;;;;;;;;4981115;28;20505;-73
2022/02/16 08:07:24;;;;;;;24.08;8.05;;;;;;;;;;4979528;28;20038;-72
2022/02/16 08:09:50;;;;;;;30.23;8.30;;;;;;;;;;4979990;28;20034;-72
2022/02/16 08:12:16;;;;;;;30.42;8.43;;;;;;;;;;4981238;28;20034;-72
2022/02/16 08:14:43;;;;;;;29.85;8.25;;;;;;;;;;4980812;28;20814;-72
2022/02/16 08:17:09;;;;;;;40.35;9.25;;;;;;;;;;4979532;28;20160;-72
2022/02/16 08:19:35;;;;;;;26.80;7.15;;;;;;;;;;4978909;28;20034;-72
2022/02/16 08:22:02;;;;;;;34.88;8.13;;;;;;;;;;4980690;28;20152;-73
2022/02/16 08:24:29;;;;;;;25.98;7.00;;;;;;;;;;4980067;28;20049;-72
2022/02/16 08:26:55;;;;;;;31.10;7.82;;;;;;;;;;4980471;28;20157;-72
2022/02/16 08:29:24;;;;;;;30.60;6.70;;;;;;;;;;4981037;28;20037;-72
2022/02/16 08:31:51;;;;;;;33.45;8.10;;;;;;;;;;4994645;28;20026;-72
2022/02/16 08:34:17;;;;;;;27.13;6.13;;;;;;;;;;4977600;28;20602;-72
2022/02/16 08:36:43;;;;;;;42.90;9.25;;;;;;;;;;4996510;28;20042;-72
2022/02/16 08:39:09;;;;;;;35.20;8.45;;;;;;;;;;4979231;28;20057;-72
2022/02/16 08:41:36;;;;;;;35.53;6.75;;;;;;;;;;4983381;28;20035;-73
2022/02/16 08:44:02;;;;;;;34.67;8.88;;;;;;;;;;4981839;28;20113;-72
2022/02/16 08:46:28;;;;;;;31.52;6.35;;;;;;;;;;4982247;28;20057;-72
2022/02/16 08:49:00;;;;;;;24.95;7.07;;;;;;;;;;4981191;28;20022;-72
2022/02/16 08:51:26;;;;;;;27.20;6.80;;;;;;;;;;4999165;28;20031;-73
2022/02/16 08:53:53;;;;;;;26.77;6.00;;;;;;;;;;4983165;28;20034;-72
2022/02/16 08:56:19;;;;;;;23.50;6.45;;;;;;;;;;4987540;28;20038;-73
2022/02/16 08:58:45;;;;;;;29.23;6.95;;;;;;;;;;4998587;28;20034;-75
2022/02/16 09:01:11;;;;;;;33.85;7.70;;;;;;;;;;4987705;28;20118;-73
2022/02/16 09:03:37;;;;;;;20.98;7.30;;;;;;;;;;4982169;28;20106;-73
2022/02/16 09:06:04;;;;;;;27.55;6.95;;;;;;;;;;4982722;28;20021;-73
2022/02/16 09:08:30;;;;;;;33.17;6.93;;;;;;;;;;4983190;28;20030;-72
2022/02/16 09:10:56;;;;;;;23.95;5.80;;;;;;;;;;4982002;28;20041;-73
2022/02/16 09:13:22;;;;;;;31.42;8.43;;;;;;;;;;4993868;28;20042;-73
2022/02/16 09:15:48;;;;;;;22.23;6.72;;;;;;;;;;4980027;28;20046;-73
2022/02/16 09:18:18;;;;;;;29.52;8.77;;;;;;;;;;4981675;28;20030;-75
2022/02/16 09:20:48;;;;;;;25.52;5.97;;;;;;;;;;4994251;28;20112;-74
2022/02/16 09:23:15;;;;;;;31.85;6.20;;;;;;;;;;4982548;28;20048;-72
2022/02/16 09:25:41;;;;;;;27.80;7.13;;;;;;;;;;4982906;28;20031;-73
2022/02/16 09:28:07;;;;;;;22.30;7.03;;;;;;;;;;4984782;28;20035;-72
2022/02/16 09:30:33;;;;;;;24.75;7.03;;;;;;;;;;4983356;28;20050;-72
2022/02/16 09:33:00;;;;;;;31.25;6.68;;;;;;;;;;4991809;28;20038;-73
2022/02/16 09:35:26;;;;;;;27.17;6.78;;;;;;;;;;4988092;28;20093;-73
2022/02/16 09:37:52;;;;;;;25.98;7.88;;;;;;;;;;4985185;28;20050;-72
2022/02/16 09:40:18;;;;;;;22.27;7.10;;;;;;;;;;4999005;28;21153;-73
2022/02/16 09:42:47;;;;;;;21.73;5.82;;;;;;;;;;4980185;28;20128;-73
2022/02/16 09:45:14;;;;;;;32.28;8.45;;;;;;;;;;4982383;28;20045;-72
2022/02/16 09:47:41;;;;;;;22.50;6.07;;;;;;;;;;4983508;28;20285;-72
2022/02/16 09:50:08;;;;;;;28.13;7.45;;;;;;;;;;4998517;28;20038;-73
2022/02/16 09:52:34;;;;;;;23.77;6.57;;;;;;;;;;4982801;28;20580;-72
2022/02/16 09:55:02;;;;;;;20.58;6.68;;;;;;;;;;4983753;28;20029;-73
2022/02/16 09:57:28;;;;;;;24.80;5.50;;;;;;;;;;4983641;28;20026;-72
2022/02/16 09:59:54;;;;;;;32.45;6.45;;;;;;;;;;4981711;28;20065;-72
2022/02/16 10:02:20;;;;;;;15.35;5.88;;;;;;;;;;4978130;28;20027;-72
2022/02/16 10:04:56;;;;;;;16.20;5.88;;;;;;;;;;4992112;28;20038;-73
2022/02/16 10:07:34;;;;;;;19.60;5.25;;;;;;;;;;4974031;28;20030;-72
2022/02/16 10:10:19;;;;;;;18.27;4.63;;;;;;;;;;4992632;28;20030;-73
2022/02/16 10:12:47;;;;;;;16.53;5.10;;;;;;;;;;4978956;28;20319;-72
2022/02/16 10:15:15;;;;;;;16.23;5.25;;;;;;;;;;4977638;28;20300;-73
2022/02/16 10:17:41;;;;;;;18.98;4.20;;;;;;;;;;4979803;28;20097;-74
2022/02/16 10:20:09;;;;;;;18.42;4.43;;;;;;;;;;4983864;28;20030;-73
2022/02/16 10:22:42;;;;;;;17.92;5.22;;;;;;;;;;4984025;28;20022;-73
2022/02/16 10:25:27;;;;;;;16.92;4.85;;;;;;;;;;4984985;28;20579;-72
2022/02/16 10:28:14;;;;;;;10.95;3.50;;;;;;;;;;4985334;28;20041;-73
2022/02/16 10:31:00;;;;;;;9.65;3.55;;;;;;;;;;4983700;28;20031;-74
2022/02/16 10:33:27;;;;;;;8.63;3.00;;;;;;;;;;4980422;28;20023;-73
2022/02/16 10:36:14;;;;;;;9.82;3.88;;;;;;;;;;5000620;28;20029;-71
2022/02/16 10:38:55;;;;;;;6.93;2.97;;;;;;;;;;4985905;28;20022;-74
2022/02/16 10:41:22;;;;;;;6.32;2.60;;;;;;;;;;4985187;28;20103;-73
2022/02/16 10:43:50;;;;;;;4.72;2.25;;;;;;;;;;4986137;28;20026;-72
2022/02/16 10:46:20;;;;;;;7.18;2.00;;;;;;;;;;4984476;28;20034;-73
2022/02/16 10:48:46;;;;;;;8.18;1.90;;;;;;;;;;4997075;28;20113;-71
2022/02/16 10:51:17;;;;;;;3.70;1.90;;;;;;;;;;4995885;28;20035;-72
2022/02/16 10:53:44;;;;;;;7.10;2.80;;;;;;;;;;4981221;28;20057;-72
2022/02/16 10:56:10;;;;;;;4.25;1.77;;;;;;;;;;4985738;28;20029;-73
2022/02/16 10:58:38;;;;;;;6.30;2.10;;;;;;;;;;4983083;28;20098;-74
2022/02/16 11:01:04;;;;;;;5.10;1.88;;;;;;;;;;4985444;28;20034;-73
2022/02/16 11:03:31;;;;;;;5.30;1.80;;;;;;;;;;4998804;28;20021;-72
2022/02/16 11:05:59;;;;;;;3.50;1.90;;;;;;;;;;4981092;28;20029;-73
2022/02/16 11:08:28;;;;;;;4.47;2.17;;;;;;;;;;4981877;28;20038;-72
2022/02/16 11:10:55;;;;;;;4.30;2.20;;;;;;;;;;4981011;28;20117;-72
2022/02/16 11:13:25;;;;;;;3.38;1.80;;;;;;;;;;4977998;28;20034;-71
2022/02/16 11:15:52;;;;;;;3.75;2.00;;;;;;;;;;4983533;28;20553;-73
2022/02/16 11:18:22;;;;;;;3.38;2.00;;;;;;;;;;4980420;28;21312;-72
2022/02/16 11:21:07;;;;;;;2.45;1.65;;;;;;;;;;4984619;28;20655;-72
2022/02/16 11:23:38;;;;;;;1.77;1.67;;;;;;;;;;4981337;28;20042;-73
2022/02/16 11:26:22;;;;;;;4.70;2.22;;;;;;;;;;4982939;28;20030;-72
2022/02/16 11:28:49;;;;;;;2.22;1.90;;;;;;;;;;4982428;28;20381;-71
2022/02/16 11:31:37;;;;;;;2.88;1.88;;;;;;;;;;4984244;28;20026;-72
2022/02/16 11:34:12;;;;;;;2.55;2.13;;;;;;;;;;4982678;28;20432;-72
2022/02/16 11:36:55;;;;;;;2.35;1.92;;;;;;;;;;4982814;28;20034;-72
2022/02/16 11:39:42;;;;;;;1.60;1.50;;;;;;;;;;4982835;28;20511;-72
2022/02/16 11:42:12;;;;;;;1.92;1.55;;;;;;;;;;4981206;28;20034;-71
2022/02/16 11:44:53;;;;;;;2.05;1.85;;;;;;;;;;4982675;28;20034;-72
2022/02/16 11:47:39;;;;;;;4.13;2.38;;;;;;;;;;4981037;28;20725;-72
2022/02/16 11:50:12;;;;;;;2.83;2.55;;;;;;;;;;4981268;28;20032;-71
2022/02/16 11:52:51;;;;;;;3.30;2.92;;;;;;;;;;4986229;28;20029;-73
2022/02/16 11:55:24;;;;;;;2.08;1.60;;;;;;;;;;4985268;28;20026;-72
2022/02/16 11:57:52;;;;;;;2.33;1.88;;;;;;;;;;4979443;28;20611;-71
2022/02/16 12:00:18;;;;;;;2.15;1.90;;;;;;;;;;4984289;28;20126;-73
2022/02/16 12:05:42;;;;;;;2.15;1.63;;;;;;;;;;4985350;28;20564;-72
2022/02/16 12:08:14;;;;;;;2.70;1.67;;;;;;;;;;4983255;28;20022;-72
2022/02/16 12:10:40;;;;;;;2.05;1.70;;;;;;;;;;4984472;28;20038;-73
2022/02/16 12:13:07;;;;;;;2.22;2.03;;;;;;;;;;4981949;28;20037;-73
2022/02/16 12:15:33;;;;;;;2.63;1.77;;;;;;;;;;4981783;28;20045;-73
2022/02/16 12:18:00;;;;;;;2.60;2.00;;;;;;;;;;4984733;28;20026;-72
2022/02/16 12:20:29;;;;;;;1.95;1.80;;;;;;;;;;4982953;28;20173;-72
2022/02/16 12:23:02;;;;;;;1.83;1.60;;;;;;;;;;4984790;28;20409;-71
2022/02/16 12:25:29;;;;;;;2.08;1.88;;;;;;;;;;4981597;28;20041;-73
2022/02/16 12:28:00;;;;;;;4.82;2.10;;;;;;;;;;4980760;28;20065;-72
2022/02/16 12:30:33;;;;;;;4.30;1.88;;;;;;;;;;4985603;28;20022;-72
2022/02/16 12:32:59;;;;;;;3.72;2.17;;;;;;;;;;4987343;28;20058;-72
2022/02/16 12:35:25;;;;;;;7.07;4.22;;;;;;;;;;4984277;28;20019;-73
2022/02/16 12:37:53;;;;;;;6.22;4.28;;;;;;;;;;4984686;28;20029;-71
2022/02/16 12:40:22;;;;;;;6.68;2.38;;;;;;;;;;4987061;28;20497;-72
2022/02/16 12:42:49;;;;;;;6.28;2.92;;;;;;;;;;4983717;28;20036;-73
2022/02/16 12:45:24;;;;;;;3.95;2.50;;;;;;;;;;4987645;28;20037;-73
2022/02/16 12:47:52;;;;;;;15.13;3.10;;;;;;;;;;4985843;28;20031;-73
2022/02/16 12:50:21;;;;;;;6.90;3.50;;;;;;;;;;4985162;28;20033;-73
2022/02/16 12:52:47;;;;;;;7.22;3.25;;;;;;;;;;4996771;28;20030;-72
2022/02/16 12:55:13;;;;;;;5.72;2.90;;;;;;;;;;4986709;28;20026;-70
2022/02/16 12:57:42;;;;;;;9.65;2.72;;;;;;;;;;4983463;28;20049;-72
2022/02/16 13:03:01;;;;;;;8.70;2.60;;;;;;;;;;4985573;28;20712;-72
2022/02/16 13:05:35;;;;;;;6.05;3.10;;;;;;;;;;4981368;28;20030;-73
2022/02/16 13:08:01;;;;;;;7.70;3.42;;;;;;;;;;4982041;28;20489;-70
2022/02/16 13:10:29;;;;;;;6.00;2.65;;;;;;;;;;4986076;28;20035;-71
2022/02/16 13:12:55;;;;;;;6.97;2.83;;;;;;;;;;4986475;28;20112;-71
2022/02/16 13:15:23;;;;;;;8.73;2.75;;;;;;;;;;4985840;28;20075;-72
2022/02/16 13:17:56;;;;;;;9.25;2.53;;;;;;;;;;4983800;28;20029;-71
2022/02/16 13:20:29;;;;;;;5.78;2.90;;;;;;;;;;4980969;28;20243;-72
2022/02/16 13:22:56;;;;;;;7.57;2.70;;;;;;;;;;4981285;28;20144;-71
2022/02/16 13:25:32;;;;;;;9.05;2.88;;;;;;;;;;4984477;28;20046;-72
2022/02/16 13:28:03;;;;;;;9.23;3.17;;;;;;;;;;4984099;28;20064;-71
2022/02/16 13:30:30;;;;;;;8.57;3.00;;;;;;;;;;4984325;28;20065;-71
2022/02/16 13:32:59;;;;;;;7.82;3.35;;;;;;;;;;4996556;28;20030;-72
2022/02/16 13:35:25;;;;;;;12.00;3.13;;;;;;;;;;4985225;28;20029;-70
2022/02/16 13:37:54;;;;;;;9.90;3.55;;;;;;;;;;4987696;28;20058;-71
2022/02/16 13:40:20;;;;;;;8.25;2.95;;;;;;;;;;4983945;28;20547;-72
2022/02/16 13:43:07;;;;;;;7.70;3.83;;;;;;;;;;4983904;28;20133;-71
2022/02/16 13:45:34;;;;;;;11.50;3.97;;;;;;;;;;4985539;28;20042;-73
2022/02/16 13:48:02;;;;;;;13.65;3.30;;;;;;;;;;4987084;28;20045;-70
2022/02/16 13:50:31;;;;;;;14.52;4.18;;;;;;;;;;5002467;28;20109;-72
2022/02/16 13:52:58;;;;;;;7.78;3.47;;;;;;;;;;4984549;28;20027;-71
2022/02/16 13:55:25;;;;;;;10.20;3.60;;;;;;;;;;4981907;28;20043;-72
2022/02/16 13:57:51;;;;;;;13.18;3.17;;;;;;;;;;4979767;28;20023;-72
2022/02/16 14:00:21;;;;;;;13.02;2.92;;;;;;;;;;4997416;28;20049;-72
2022/02/16 14:03:06;;;;;;;13.43;3.65;;;;;;;;;;4983418;28;20117;-72
2022/02/16 14:05:32;;;;;;;13.25;3.53;;;;;;;;;;4983461;28;20026;-72
2022/02/16 14:08:01;;;;;;;9.02;2.92;;;;;;;;;;4982278;28;20113;-73
2022/02/16 14:10:31;;;;;;;13.35;3.80;;;;;;;;;;5003669;28;20121;-70
2022/02/16 14:12:57;;;;;;;18.13;3.92;;;;;;;;;;5001875;28;20026;-70
2022/02/16 14:15:24;;;;;;;13.00;3.53;;;;;;;;;;4984857;28;20058;-72
2022/02/16 14:17:50;;;;;;;11.50;3.55;;;;;;;;;;4987384;28;20106;-72
2022/02/16 14:20:17;;;;;;;8.10;3.45;;;;;;;;;;4986541;28;21697;-72
2022/02/16 14:22:44;;;;;;;8.70;2.88;;;;;;;;;;4988271;28;20054;-72
2022/02/16 14:25:10;;;;;;;12.30;3.40;;;;;;;;;;4988782;28;20576;-71
2022/02/16 14:27:37;;;;;;;13.60;3.75;;;;;;;;;;4998642;28;20070;-69
2022/02/16 14:30:04;;;;;;;12.20;4.40;;;;;;;;;;4986974;28;20034;-70
2022/02/16 14:32:30;;;;;;;13.05;3.97;;;;;;;;;;4989093;28;20030;-71
2022/02/16 14:34:58;;;;;;;12.27;3.63;;;;;;;;;;4985180;28;20365;-70
2022/02/16 14:37:26;;;;;;;16.27;5.22;;;;;;;;;;4979102;28;20022;-71
2022/02/16 14:39:52;;;;;;;14.00;3.95;;;;;;;;;;4980165;28;20137;-71
2022/02/16 14:42:18;;;;;;;10.02;3.67;;;;;;;;;;4982433;28;20108;-71
2022/02/16 14:44:46;;;;;;;13.93;3.80;;;;;;;;;;4979696;28;20089;-72